createdAt,value
2018-04-08T00:01:28.751Z,100449.34
2018-04-08T00:03:56.872Z,100448.64
2018-04-08T00:06:24.992Z,100448.27
2018-04-08T00:08:53.144Z,100446.84
2018-04-08T00:11:21.327Z,100450.22
2018-04-08T00:13:49.455Z,100437.66
2018-04-08T00:16:17.560Z,100443.32
2018-04-08T00:18:45.673Z,100437.38
2018-04-08T00:21:13.805Z,100440.09
2018-04-08T00:23:41.922Z,100427.88
2018-04-08T00:26:10.063Z,100427.31
2018-04-08T00:28:38.205Z,100423.09
2018-04-08T00:31:06.331Z,100419.83
2018-04-08T00:33:34.454Z,100420.75
2018-04-08T00:36:02.573Z,100432.36
2018-04-08T00:38:30.697Z,100423.69
2018-04-08T00:40:58.845Z,100427.91
2018-04-08T00:43:26.963Z,100423.20
2018-04-08T00:45:55.095Z,100425.47
2018-04-08T00:48:23.222Z,100422.11
2018-04-08T00:50:51.338Z,100424.00
2018-04-08T00:53:19.457Z,100423.78
2018-04-08T00:55:47.585Z,100415.91
2018-04-08T00:58:15.728Z,100422.80
2018-04-08T01:00:43.837Z,100418.50
2018-04-08T01:03:11.958Z,100418.37
2018-04-08T01:05:40.088Z,100424.48
2018-04-08T01:08:08.214Z,100420.80
2018-04-08T01:10:36.324Z,100419.43
2018-04-08T01:13:04.464Z,100410.94
2018-04-08T01:15:32.563Z,100410.03
2018-04-08T01:18:00.690Z,100414.64
2018-04-08T01:20:28.793Z,100412.89
2018-04-08T01:22:56.959Z,100411.58
2018-04-08T01:25:25.080Z,100416.78
2018-04-08T01:27:53.200Z,100411.41
2018-04-08T01:30:21.328Z,100413.29
2018-04-08T01:32:49.451Z,100408.31
2018-04-08T01:35:17.593Z,100406.17
2018-04-08T01:37:45.714Z,100413.50
2018-04-08T01:40:13.834Z,100406.17
2018-04-08T01:42:41.968Z,100401.38
2018-04-08T01:45:10.076Z,100397.27
2018-04-08T01:47:38.220Z,100396.48
2018-04-08T01:50:06.354Z,100392.63
2018-04-08T01:52:34.479Z,100392.41
2018-04-08T01:55:02.621Z,100388.42
2018-04-08T01:57:30.751Z,100387.25
2018-04-08T01:59:58.877Z,100382.84
2018-04-08T02:02:26.998Z,100383.59
2018-04-08T02:04:55.125Z,100388.88
2018-04-08T02:07:23.259Z,100386.16
2018-04-08T02:09:51.402Z,100388.91
2018-04-08T02:12:19.544Z,100389.01
2018-04-08T02:14:47.662Z,100395.38
2018-04-08T02:17:15.781Z,100386.73
2018-04-08T02:19:43.931Z,100386.56
2018-04-08T02:22:12.055Z,100383.77
2018-04-08T02:24:40.212Z,100389.15
2018-04-08T02:27:08.338Z,100389.70
2018-04-08T02:29:36.456Z,100387.91
2018-04-08T02:32:04.577Z,100386.68
2018-04-08T02:34:32.720Z,100391.34
2018-04-08T02:37:00.848Z,100388.41
2018-04-08T02:39:28.961Z,100385.03
2018-04-08T02:41:57.065Z,100388.17
2018-04-08T02:44:25.204Z,100382.55
2018-04-08T02:46:53.337Z,100385.22
2018-04-08T02:49:21.450Z,100392.17
2018-04-08T02:51:49.630Z,100389.13
2018-04-08T02:54:17.765Z,100392.49
2018-04-08T02:56:45.909Z,100388.14
2018-04-08T02:59:14.134Z,100380.97
2018-04-08T03:01:42.273Z,100381.11
2018-04-08T03:04:10.396Z,100375.84
2018-04-08T03:06:38.541Z,100370.89
2018-04-08T03:09:06.667Z,100371.44
2018-04-08T03:11:35.147Z,100377.11
2018-04-08T03:14:03.275Z,100367.78
2018-04-08T03:16:31.385Z,100370.13
2018-04-08T03:18:59.510Z,100360.13
2018-04-08T03:21:27.652Z,100359.63
2018-04-08T03:23:55.793Z,100357.88
2018-04-08T03:26:23.945Z,100356.03
2018-04-08T03:28:52.078Z,100356.75
2018-04-08T03:31:20.194Z,100357.14
2018-04-08T03:33:48.300Z,100354.89
2018-04-08T03:36:16.427Z,100353.26
2018-04-08T03:38:44.569Z,100356.82
2018-04-08T03:41:12.691Z,100353.88
2018-04-08T03:43:40.818Z,100352.67
2018-04-08T03:46:09.257Z,100352.02
2018-04-08T03:48:37.373Z,100351.22
2018-04-08T03:51:05.579Z,100351.91
2018-04-08T03:53:33.693Z,100354.46
2018-04-08T03:56:01.801Z,100353.84
2018-04-08T03:58:29.939Z,100354.80
2018-04-08T04:00:58.084Z,100355.10
2018-04-08T04:03:26.218Z,100354.02
2018-04-08T04:05:54.357Z,100356.06
2018-04-08T04:08:22.469Z,100356.07
2018-04-08T04:10:51.209Z,100358.25
2018-04-08T04:13:19.331Z,100345.78
2018-04-08T04:15:47.479Z,100353.02
2018-04-08T04:21:31.400Z,100351.86
2018-04-08T04:24:11.477Z,100348.87
2018-04-08T04:26:39.692Z,100349.21
2018-04-08T04:29:07.823Z,100348.80
2018-04-08T04:31:36.230Z,100351.21
2018-04-08T04:34:04.363Z,100356.73
2018-04-08T04:36:32.486Z,100357.01
2018-04-08T04:39:00.600Z,100356.02
2018-04-08T04:41:28.983Z,100357.61
2018-04-08T04:43:57.087Z,100362.37
2018-04-08T04:46:25.222Z,100354.91
2018-04-08T04:48:53.369Z,100358.33
2018-04-08T04:51:21.495Z,100358.20
2018-04-08T04:53:49.629Z,100357.25
2018-04-08T04:56:17.739Z,100354.41
2018-04-08T04:58:45.867Z,100352.73
2018-04-08T05:01:14.002Z,100361.79
2018-04-08T05:03:42.130Z,100356.65
2018-04-08T05:06:10.265Z,100348.67
2018-04-08T05:08:38.376Z,100347.44
2018-04-08T05:11:06.500Z,100350.09
2018-04-08T05:13:34.679Z,100356.43
2018-04-08T05:16:02.803Z,100351.41
2018-04-08T05:18:30.936Z,100348.59
2018-04-08T05:20:59.057Z,100348.14
2018-04-08T05:23:27.197Z,100350.45
2018-04-08T05:25:55.334Z,100353.47
2018-04-08T05:28:23.461Z,100354.18
2018-04-08T05:30:51.610Z,100362.47
2018-04-08T05:33:19.783Z,100361.70
2018-04-08T05:35:47.973Z,100364.12
2018-04-08T05:38:16.092Z,100362.09
2018-04-08T05:40:44.219Z,100372.13
2018-04-08T05:43:12.373Z,100374.06
2018-04-08T05:45:40.503Z,100370.45
2018-04-08T05:48:08.640Z,100370.66
2018-04-08T05:50:36.784Z,100371.72
2018-04-08T05:53:04.899Z,100371.80
2018-04-08T05:55:33.059Z,100370.42
2018-04-08T05:58:01.190Z,100370.58
2018-04-08T06:00:29.304Z,100368.28
2018-04-08T06:02:57.452Z,100367.51
2018-04-08T06:05:25.570Z,100364.06
2018-04-08T06:07:53.711Z,100371.92
2018-04-08T06:10:21.838Z,100364.47
2018-04-08T06:12:49.972Z,100365.72
2018-04-08T06:15:18.101Z,100362.09
2018-04-08T06:17:46.215Z,100371.73
2018-04-08T06:20:17.848Z,100363.66
2018-04-08T06:22:45.985Z,100367.78
2018-04-08T06:25:14.114Z,100363.90
2018-04-08T06:27:42.256Z,100364.86
2018-04-08T06:30:10.373Z,100358.77
2018-04-08T06:32:38.502Z,100361.48
2018-04-08T06:35:06.670Z,100356.20
2018-04-08T06:37:34.819Z,100361.22
2018-04-08T06:40:02.976Z,100360.95
2018-04-08T06:42:31.093Z,100362.17
2018-04-08T06:44:59.227Z,100367.10
2018-04-08T06:47:27.364Z,100366.98
2018-04-08T06:49:55.479Z,100369.60
2018-04-08T06:52:23.611Z,100374.10
2018-04-08T06:54:51.740Z,100368.41
2018-04-08T06:57:19.899Z,100369.22
2018-04-08T06:59:48.031Z,100369.92
2018-04-08T07:02:16.353Z,100370.07
2018-04-08T07:04:44.859Z,100365.73
2018-04-08T07:07:12.979Z,100372.91
2018-04-08T07:09:41.129Z,100371.45
2018-04-08T07:12:09.236Z,100372.67
2018-04-08T07:14:37.374Z,100368.84
2018-04-08T07:17:05.518Z,100373.06
2018-04-08T07:19:33.655Z,100370.77
2018-04-08T07:22:01.883Z,100369.83
2018-04-08T07:24:30.002Z,100371.19
2018-04-08T07:26:58.138Z,100369.27
2018-04-08T07:29:26.264Z,100369.41
2018-04-08T07:31:54.390Z,100368.61
2018-04-08T07:34:22.530Z,100366.83
2018-04-08T07:36:50.651Z,100360.16
2018-04-08T07:39:18.818Z,100361.82
2018-04-08T07:41:46.952Z,100354.04
2018-04-08T07:44:15.780Z,100364.62
2018-04-08T07:46:43.925Z,100359.42
2018-04-08T07:49:12.220Z,100357.19
2018-04-08T07:51:40.328Z,100358.61
2018-04-08T07:54:08.468Z,100361.97
2018-04-08T07:56:36.594Z,100361.00
2018-04-08T07:59:04.747Z,100355.11
2018-04-08T08:01:32.880Z,100361.34
2018-04-08T08:04:01.057Z,100360.36
2018-04-08T08:06:29.202Z,100373.80
2018-04-08T08:08:57.315Z,100374.81
2018-04-08T08:11:25.513Z,100384.58
2018-04-08T08:13:53.647Z,100380.36
2018-04-08T08:16:21.783Z,100387.48
2018-04-08T08:18:49.901Z,100386.93
2018-04-08T08:21:18.044Z,100391.16
2018-04-08T08:23:46.191Z,100390.36
2018-04-08T08:26:14.351Z,100390.23
2018-04-08T08:28:43.014Z,100392.30
2018-04-08T08:31:11.175Z,100392.54
2018-04-08T08:33:43.314Z,100400.70
2018-04-08T08:36:11.490Z,100403.83
2018-04-08T08:38:39.638Z,100409.24
2018-04-08T08:41:07.973Z,100401.33
2018-04-08T08:43:36.104Z,100396.30
2018-04-08T08:46:04.238Z,100398.38
2018-04-08T08:48:32.367Z,100403.97
2018-04-08T08:51:00.510Z,100401.38
2018-04-08T08:53:32.280Z,100401.09
2018-04-08T08:56:00.430Z,100397.69
2018-04-08T08:58:28.561Z,100388.75
2018-04-08T09:00:56.890Z,100398.38
2018-04-08T09:03:25.010Z,100393.64
2018-04-08T09:05:53.147Z,100398.18
2018-04-08T09:08:21.312Z,100399.95
2018-04-08T09:10:49.460Z,100395.81
2018-04-08T09:13:17.621Z,100394.55
2018-04-08T09:15:45.764Z,100388.20
2018-04-08T09:18:13.911Z,100394.27
2018-04-08T09:23:52.190Z,100392.25
2018-04-08T09:26:20.352Z,100397.95
2018-04-08T09:28:48.490Z,100389.08
2018-04-08T09:31:16.598Z,100385.16
2018-04-08T09:33:44.798Z,100390.99
2018-04-08T09:36:12.956Z,100384.55
2018-04-08T09:38:41.062Z,100391.82
2018-04-08T09:41:09.219Z,100390.77
2018-04-08T09:43:37.357Z,100393.38
2018-04-08T09:46:05.506Z,100389.51
2018-04-08T09:48:33.615Z,100390.40
2018-04-08T09:51:01.741Z,100383.97
2018-04-08T09:53:29.895Z,100381.31
2018-04-08T09:55:58.297Z,100384.48
2018-04-08T09:58:26.448Z,100382.55
2018-04-08T10:01:09.212Z,100375.55
2018-04-08T10:03:46.389Z,100381.14
2018-04-08T10:06:14.533Z,100366.52
2018-04-08T10:08:42.661Z,100372.95
2018-04-08T10:11:10.804Z,100363.21
2018-04-08T10:13:38.926Z,100373.14
2018-04-08T10:16:07.417Z,100367.38
2018-04-08T10:18:35.541Z,100367.79
2018-04-08T10:21:03.658Z,100364.97
2018-04-08T10:23:31.820Z,100366.91
2018-04-08T10:25:59.948Z,100368.27
2018-04-08T10:28:28.083Z,100371.46
2018-04-08T10:30:56.214Z,100367.77
2018-04-08T10:33:24.352Z,100374.50
2018-04-08T10:35:52.529Z,100368.42
2018-04-08T10:38:20.693Z,100366.03
2018-04-08T10:40:48.927Z,100368.78
2018-04-08T10:43:17.075Z,100366.23
2018-04-08T10:45:45.208Z,100362.45
2018-04-08T10:48:13.371Z,100363.93
2018-04-08T10:50:41.516Z,100359.09
2018-04-08T10:53:09.672Z,100352.19
2018-04-08T10:55:37.837Z,100345.92
2018-04-08T10:58:05.982Z,100340.09
2018-04-08T11:00:34.160Z,100341.52
2018-04-08T11:03:02.304Z,100345.70
2018-04-08T11:05:30.432Z,100338.11
2018-04-08T11:07:58.576Z,100339.38
2018-04-08T11:10:26.730Z,100342.42
2018-04-08T11:12:54.885Z,100331.98
2018-04-08T11:15:22.997Z,100330.52
2018-04-08T11:17:51.153Z,100323.05
2018-04-08T11:20:19.292Z,100320.88
2018-04-08T11:22:47.423Z,100324.16
2018-04-08T11:25:15.577Z,100317.52
2018-04-08T11:27:43.693Z,100318.82
2018-04-08T11:30:11.856Z,100316.13
2018-04-08T11:32:39.981Z,100312.65
2018-04-08T11:35:08.112Z,100318.45
2018-04-08T11:37:36.306Z,100322.14
2018-04-08T11:40:04.427Z,100326.88
2018-04-08T11:42:32.594Z,100321.60
2018-04-08T11:45:00.749Z,100317.49
2018-04-08T11:47:28.897Z,100318.08
2018-04-08T11:49:57.040Z,100317.48
2018-04-08T11:52:25.220Z,100313.80
2018-04-08T11:54:53.325Z,100313.00
2018-04-08T11:57:21.488Z,100303.64
2018-04-08T11:59:49.616Z,100305.06
2018-04-08T12:02:17.784Z,100309.35
2018-04-08T12:04:45.936Z,100307.77
2018-04-08T12:07:14.088Z,100303.84
2018-04-08T12:09:42.223Z,100303.98
2018-04-08T12:12:13.841Z,100301.98
2018-04-08T12:14:41.974Z,100300.08
2018-04-08T12:17:10.112Z,100290.83
2018-04-08T12:19:38.269Z,100290.92
2018-04-08T12:22:06.474Z,100284.81
2018-04-08T12:24:34.591Z,100290.66
2018-04-08T12:27:15.598Z,100278.13
2018-04-08T12:29:43.728Z,100281.10
2018-04-08T12:32:11.873Z,100280.83
2018-04-08T12:34:43.437Z,100273.75
2018-04-08T12:37:11.587Z,100271.48
2018-04-08T12:39:39.736Z,100269.88
2018-04-08T12:42:07.882Z,100266.88
2018-04-08T12:44:36.037Z,100264.22
2018-04-08T12:47:04.149Z,100267.80
2018-04-08T12:49:32.291Z,100266.78
2018-04-08T12:52:00.459Z,100263.39
2018-04-08T12:54:28.566Z,100260.67
2018-04-08T12:56:56.712Z,100252.80
2018-04-08T12:59:24.839Z,100251.64
2018-04-08T13:01:52.948Z,100248.09
2018-04-08T13:04:21.083Z,100242.80
2018-04-08T13:06:49.257Z,100236.73
2018-04-08T13:09:17.394Z,100229.23
2018-04-08T13:11:45.541Z,100231.71
2018-04-08T13:14:13.712Z,100223.08
2018-04-08T13:16:41.806Z,100213.84
2018-04-08T13:19:09.953Z,100215.66
2018-04-08T13:21:38.109Z,100215.33
2018-04-08T13:24:06.230Z,100213.30
2018-04-08T13:26:34.374Z,100201.58
2018-04-08T13:29:02.503Z,100199.94
2018-04-08T13:31:30.822Z,100203.89
2018-04-08T13:33:59.187Z,100193.30
2018-04-08T13:36:27.331Z,100197.45
2018-04-08T13:38:55.459Z,100201.31
2018-04-08T13:41:23.703Z,100192.98
2018-04-08T13:43:51.838Z,100192.33
2018-04-08T13:46:19.973Z,100185.87
2018-04-08T13:48:48.127Z,100182.63
2018-04-08T13:51:16.251Z,100184.17
2018-04-08T13:53:44.412Z,100178.70
2018-04-08T13:56:12.566Z,100181.97
2018-04-08T13:58:40.693Z,100174.67
2018-04-08T14:01:08.819Z,100173.12
2018-04-08T14:03:36.946Z,100172.00
2018-04-08T14:06:05.093Z,100167.02
2018-04-08T14:08:33.227Z,100170.21
2018-04-08T14:11:01.348Z,100170.09
2018-04-08T14:13:29.486Z,100168.07
2018-04-08T14:15:57.637Z,100167.98
2018-04-08T14:18:25.788Z,100164.45
2018-04-08T14:20:53.919Z,100165.22
2018-04-08T14:23:22.073Z,100157.05
2018-04-08T14:25:50.206Z,100154.39
2018-04-08T14:28:18.363Z,100154.78
2018-04-08T14:30:46.495Z,100154.82
2018-04-08T14:33:14.639Z,100147.37
2018-04-08T14:35:42.785Z,100143.55
2018-04-08T14:38:10.930Z,100138.95
2018-04-08T14:40:39.057Z,100136.90
2018-04-08T14:43:07.190Z,100139.31
2018-04-08T14:45:35.317Z,100136.10
2018-04-08T14:48:03.437Z,100136.70
2018-04-08T14:50:31.574Z,100133.07
2018-04-08T14:52:59.743Z,100131.02
2018-04-08T14:55:27.956Z,100134.97
2018-04-08T14:57:56.077Z,100132.05
2018-04-08T15:00:24.203Z,100131.59
2018-04-08T15:02:52.332Z,100130.84
2018-04-08T15:05:20.462Z,100130.38
2018-04-08T15:07:48.611Z,100130.42
2018-04-08T15:10:16.722Z,100128.02
2018-04-08T15:12:44.881Z,100123.10
2018-04-08T15:15:13.103Z,100123.77
2018-04-08T15:17:41.213Z,100125.77
2018-04-08T15:20:09.698Z,100119.58
2018-04-08T15:22:37.843Z,100123.16
2018-04-08T15:25:06.049Z,100124.20
2018-04-08T15:27:34.188Z,100121.72
2018-04-08T15:30:02.331Z,100123.17
2018-04-08T15:32:30.462Z,100116.84
2018-04-08T15:34:58.591Z,100118.66
2018-04-08T15:37:26.723Z,100116.15
2018-04-08T15:39:54.868Z,100114.40
2018-04-08T15:42:23.019Z,100120.76
2018-04-08T15:44:51.129Z,100110.03
2018-04-08T15:47:19.258Z,100109.28
2018-04-08T15:49:47.400Z,100108.33
2018-04-08T15:52:15.539Z,100105.88
2018-04-08T15:54:43.691Z,100106.30
2018-04-08T15:57:11.804Z,100104.53
2018-04-08T15:59:39.937Z,100101.66
2018-04-08T16:02:08.098Z,100101.82
2018-04-08T16:04:36.221Z,100101.08
2018-04-08T16:07:04.362Z,100105.44
2018-04-08T16:09:32.492Z,100104.28
2018-04-08T16:12:00.634Z,100107.86
2018-04-08T16:14:28.764Z,100106.98
2018-04-08T16:16:56.921Z,100102.95
2018-04-08T16:19:25.056Z,100105.77
2018-04-08T16:21:53.189Z,100108.11
2018-04-08T16:24:21.400Z,100109.66
2018-04-08T16:26:49.523Z,100110.70
2018-04-08T16:29:17.651Z,100109.66
2018-04-08T16:31:45.790Z,100110.37
2018-04-08T16:34:13.962Z,100117.56
2018-04-08T16:36:42.149Z,100109.73
2018-04-08T16:39:10.248Z,100113.61
2018-04-08T16:41:38.376Z,100109.48
2018-04-08T16:44:06.507Z,100109.23
2018-04-08T16:46:34.652Z,100106.98
2018-04-08T16:49:02.781Z,100106.73
2018-04-08T16:51:31.013Z,100107.23
2018-04-08T16:53:59.142Z,100110.86
2018-04-08T16:56:27.286Z,100105.85
2018-04-08T16:58:55.484Z,100110.05
2018-04-08T17:01:23.571Z,100109.17
2018-04-08T17:03:51.710Z,100108.19
2018-04-08T17:06:19.874Z,100113.68
2018-04-08T17:08:48.023Z,100111.19
2018-04-08T17:11:16.153Z,100117.96
2018-04-08T17:13:44.372Z,100114.75
2018-04-08T17:16:12.450Z,100114.17
2018-04-08T17:18:40.559Z,100115.96
2018-04-08T17:21:11.726Z,100121.41
2018-04-08T17:23:39.868Z,100119.64
2018-04-08T17:26:07.991Z,100126.55
2018-04-08T17:28:36.127Z,100125.75
2018-04-08T17:31:07.791Z,100134.96
2018-04-08T17:33:35.918Z,100132.67
2018-04-08T17:36:04.058Z,100134.25
2018-04-08T17:38:32.197Z,100131.67
2018-04-08T17:41:00.335Z,100135.57
2018-04-08T17:43:28.615Z,100135.52
2018-04-08T17:45:56.767Z,100146.70
2018-04-08T17:48:24.903Z,100141.17
2018-04-08T17:50:53.091Z,100143.51
2018-04-08T17:53:21.213Z,100140.85
2018-04-08T17:55:49.368Z,100143.61
2018-04-08T17:58:17.508Z,100148.87
2018-04-08T18:00:45.643Z,100149.23
2018-04-08T18:03:13.784Z,100150.22
2018-04-08T18:05:41.923Z,100149.00
2018-04-08T18:08:10.046Z,100147.76
2018-04-08T18:10:38.162Z,100145.23
2018-04-08T18:13:06.295Z,100151.47
2018-04-08T18:15:34.432Z,100148.97
2018-04-08T18:18:02.595Z,100148.88
2018-04-08T18:20:30.682Z,100152.95
2018-04-08T18:22:58.824Z,100154.49
2018-04-08T18:25:26.960Z,100155.53
2018-04-08T18:27:55.110Z,100157.61
2018-04-08T18:30:23.236Z,100153.59
2018-04-08T18:32:51.375Z,100163.64
2018-04-08T18:35:19.522Z,100165.48
2018-04-08T18:37:47.625Z,100176.53
2018-04-08T18:40:15.748Z,100175.81
2018-04-08T18:42:43.868Z,100173.33
2018-04-08T18:45:11.997Z,100181.95
2018-04-08T18:47:40.130Z,100182.05
2018-04-08T18:50:08.247Z,100191.81
2018-04-08T18:52:36.405Z,100188.37
2018-04-08T18:55:08.256Z,100186.42
2018-04-08T18:57:36.707Z,100188.16
2018-04-08T19:00:05.000Z,100190.63
2018-04-08T19:02:33.403Z,100184.59
2018-04-08T19:05:01.583Z,100185.52
2018-04-08T19:07:29.703Z,100184.83
2018-04-08T19:09:57.835Z,100188.12
2018-04-08T19:12:25.974Z,100198.08
2018-04-08T19:14:59.651Z,100193.23
2018-04-08T19:17:33.620Z,100198.59
2018-04-08T19:20:01.761Z,100200.00
2018-04-08T19:22:29.921Z,100203.98
2018-04-08T19:24:58.042Z,100199.25
2018-04-08T19:27:34.883Z,100202.44
2018-04-08T19:30:03.022Z,100205.26
2018-04-08T19:32:31.164Z,100206.28
2018-04-08T19:34:59.291Z,100207.91
2018-04-08T19:37:27.407Z,100207.88
2018-04-08T19:39:55.557Z,100208.63
2018-04-08T19:42:23.668Z,100216.08
2018-04-08T19:44:52.654Z,100207.56
2018-04-08T19:47:21.025Z,100213.80
2018-04-08T19:49:49.156Z,100214.52
2018-04-08T19:52:17.310Z,100210.75
2018-04-08T19:54:48.498Z,100206.79
2018-04-08T19:57:16.630Z,100209.81
2018-04-08T19:59:48.118Z,100204.09
2018-04-08T20:02:16.240Z,100206.05
2018-04-08T20:04:44.364Z,100199.37
2018-04-08T20:07:12.483Z,100199.90
2018-04-08T20:09:40.611Z,100197.77
2018-04-08T20:12:08.770Z,100199.34
2018-04-08T20:14:36.884Z,100197.48
2018-04-08T20:17:05.032Z,100194.94
2018-04-08T20:19:33.173Z,100199.65
2018-04-08T20:22:01.298Z,100200.27
2018-04-08T20:24:29.436Z,100193.51
2018-04-08T20:26:57.588Z,100187.91
2018-04-08T20:29:25.766Z,100186.45
2018-04-08T20:31:57.145Z,100188.31
2018-04-08T20:34:25.273Z,100183.48
2018-04-08T20:36:53.410Z,100190.08
2018-04-08T20:39:21.566Z,100188.09
2018-04-08T20:41:49.698Z,100182.64
2018-04-08T20:44:17.830Z,100184.32
2018-04-08T20:46:45.949Z,100180.02
2018-04-08T20:49:14.112Z,100184.87
2018-04-08T20:51:42.230Z,100190.58
2018-04-08T20:54:10.410Z,100191.70
2018-04-08T20:56:38.533Z,100190.89
2018-04-08T20:59:06.677Z,100196.03
2018-04-08T21:01:35.145Z,100192.64
2018-04-08T21:04:03.276Z,100194.31
2018-04-08T21:06:31.447Z,100186.56
2018-04-08T21:08:59.586Z,100195.16
2018-04-08T21:11:27.756Z,100194.09
2018-04-08T21:13:55.901Z,100191.27
2018-04-08T21:16:24.029Z,100188.39
2018-04-08T21:18:52.163Z,100188.20
2018-04-08T21:21:20.292Z,100191.39
2018-04-08T21:23:48.513Z,100193.39
2018-04-08T21:26:16.635Z,100188.23
2018-04-08T21:28:44.775Z,100189.58
2018-04-08T21:31:12.940Z,100189.48
2018-04-08T21:33:41.167Z,100189.16
2018-04-08T21:36:09.305Z,100192.70
2018-04-08T21:38:37.446Z,100190.09
2018-04-08T21:41:05.588Z,100189.52
2018-04-08T21:43:33.768Z,100193.61
2018-04-08T21:46:01.874Z,100194.03
2018-04-08T21:48:30.008Z,100187.69
2018-04-08T21:50:58.143Z,100181.45
2018-04-08T21:53:26.260Z,100188.18
2018-04-08T21:55:54.554Z,100181.92
2018-04-08T21:58:22.714Z,100188.48
2018-04-08T22:00:50.804Z,100188.93
2018-04-08T22:03:18.962Z,100177.55
2018-04-08T22:05:47.066Z,100180.98
2018-04-08T22:08:15.206Z,100182.77
2018-04-08T22:10:43.355Z,100181.16
2018-04-08T22:13:11.473Z,100189.03
2018-04-08T22:15:39.612Z,100188.92
2018-04-08T22:18:07.750Z,100191.66
2018-04-08T22:20:35.869Z,100195.88
2018-04-08T22:23:03.981Z,100191.96
2018-04-08T22:25:32.197Z,100199.84
2018-04-08T22:28:00.379Z,100196.20
2018-04-08T22:30:29.285Z,100196.87
2018-04-08T22:32:57.427Z,100201.09
2018-04-08T22:35:25.580Z,100199.63
2018-04-08T22:37:53.736Z,100204.67
2018-04-08T22:40:21.890Z,100204.13
2018-04-08T22:42:50.001Z,100204.27
2018-04-08T22:45:18.152Z,100203.59
2018-04-08T22:47:46.481Z,100209.31
2018-04-08T22:50:14.612Z,100207.15
2018-04-08T22:52:42.758Z,100213.95
2018-04-08T22:55:10.896Z,100210.55
2018-04-08T22:57:39.047Z,100213.00
2018-04-08T23:00:07.247Z,100207.58
2018-04-08T23:02:35.382Z,100210.30
2018-04-08T23:05:03.518Z,100211.28
2018-04-08T23:07:31.658Z,100204.89
2018-04-08T23:09:59.777Z,100205.17
2018-04-08T23:12:27.888Z,100199.19
2018-04-08T23:14:56.010Z,100203.83
2018-04-08T23:17:24.162Z,100192.69
2018-04-08T23:19:52.295Z,100198.00
2018-04-08T23:22:20.462Z,100187.13
2018-04-08T23:24:48.580Z,100187.13
2018-04-08T23:27:16.698Z,100189.97
2018-04-08T23:29:44.821Z,100187.68
2018-04-08T23:32:12.971Z,100187.00
2018-04-08T23:34:41.068Z,100184.41
2018-04-08T23:37:09.191Z,100184.55
2018-04-08T23:39:37.338Z,100185.64
2018-04-08T23:42:05.475Z,100182.69
2018-04-08T23:44:33.605Z,100185.66
2018-04-08T23:47:01.766Z,100188.65
2018-04-08T23:49:29.905Z,100191.50
2018-04-08T23:51:58.052Z,100189.34
2018-04-08T23:54:26.214Z,100186.77
2018-04-08T23:56:54.350Z,100185.95
2018-04-08T23:59:22.508Z,100182.42
